sensor_id;sensor_type;location;lat;lon;timestamp;pressure;altitude;pressure_sealevel;temperature;humidity
73681;BME280;61979;53.536;8.082;2022-07-23T00:00:18;101990.53;;;16.97;74.63
73681;BME280;61979;53.536;8.082;2022-07-23T00:01:19;101983.56;;;17.02;74.35
73681;BME280;61979;53.536;8.082;2022-07-23T00:02:19;101990.31;;;17.08;74.34
73681;BME280;61979;53.536;8.082;2022-07-23T00:03:20;101988.84;;;16.96;73.53
73681;BME280;61979;53.536;8.082;2022-07-23T00:04:20;101987.09;;;16.97;73.94
73681;BME280;61979;53.536;8.082;2022-07-23T00:05:20;101989.66;;;17.00;73.62
73681;BME280;61979;53.536;8.082;2022-07-23T00:06:22;101988.63;;;17.07;73.75
73681;BME280;61979;53.536;8.082;2022-07-23T00:07:22;101991.19;;;17.07;73.74
73681;BME280;61979;53.536;8.082;2022-07-23T00:08:23;101993.84;;;17.02;73.97
73681;BME280;61979;53.536;8.082;2022-07-23T00:09:23;101993.03;;;17.02;73.99
73681;BME280;61979;53.536;8.082;2022-07-23T00:10:24;101991.44;;;16.95;73.45
73681;BME280;61979;53.536;8.082;2022-07-23T00:11:24;101991.44;;;16.95;74.04
73681;BME280;61979;53.536;8.082;2022-07-23T00:12:25;101989.59;;;17.01;74.09
73681;BME280;61979;53.536;8.082;2022-07-23T00:13:25;101994.81;;;16.98;73.80
73681;BME280;61979;53.536;8.082;2022-07-23T00:14:25;101997.53;;;16.91;72.61
73681;BME280;61979;53.536;8.082;2022-07-23T00:15:26;101994.84;;;16.95;73.83
73681;BME280;61979;53.536;8.082;2022-07-23T00:16:26;101998.28;;;16.97;73.80
73681;BME280;61979;53.536;8.082;2022-07-23T00:17:26;101997.47;;;16.94;73.70
73681;BME280;61979;53.536;8.082;2022-07-23T00:18:27;101989.06;;;16.86;73.90
73681;BME280;61979;53.536;8.082;2022-07-23T00:19:27;101993.25;;;16.90;73.43
73681;BME280;61979;53.536;8.082;2022-07-23T00:20:29;101982.13;;;16.89;73.43
73681;BME280;61979;53.536;8.082;2022-07-23T00:21:29;101981.41;;;16.83;72.43
73681;BME280;61979;53.536;8.082;2022-07-23T00:22:30;101976.06;;;16.92;72.69
73681;BME280;61979;53.536;8.082;2022-07-23T00:23:30;101982.16;;;16.86;73.13
73681;BME280;61979;53.536;8.082;2022-07-23T00:24:31;101979.47;;;16.94;71.53
73681;BME280;61979;53.536;8.082;2022-07-23T00:25:31;101977.69;;;16.96;73.68
73681;BME280;61979;53.536;8.082;2022-07-23T00:26:31;101981.88;;;17.01;73.25
73681;BME280;61979;53.536;8.082;2022-07-23T00:27:32;101981.84;;;17.03;73.66
73681;BME280;61979;53.536;8.082;2022-07-23T00:28:32;101963.09;;;16.96;73.61
73681;BME280;61979;53.536;8.082;2022-07-23T00:29:32;101974.22;;;16.97;73.37
73681;BME280;61979;53.536;8.082;2022-07-23T00:30:33;101979.38;;;16.97;74.45
73681;BME280;61979;53.536;8.082;2022-07-23T00:31:33;101975.97;;;16.96;74.07
73681;BME280;61979;53.536;8.082;2022-07-23T00:32:54;101969.06;;;16.97;73.88
73681;BME280;61979;53.536;8.082;2022-07-23T00:33:56;101979.47;;;16.92;73.65
73681;BME280;61979;53.536;8.082;2022-07-23T00:34:57;101970.94;;;16.90;74.10
73681;BME280;61979;53.536;8.082;2022-07-23T00:35:57;101973.34;;;16.98;74.24
73681;BME280;61979;53.536;8.082;2022-07-23T00:36:57;101980.97;;;17.04;74.63
73681;BME280;61979;53.536;8.082;2022-07-23T00:37:59;101980.84;;;17.10;75.04
73681;BME280;61979;53.536;8.082;2022-07-23T00:38:59;101979.06;;;17.13;74.08
73681;BME280;61979;53.536;8.082;2022-07-23T00:40:00;101981.53;;;17.18;73.62
73681;BME280;61979;53.536;8.082;2022-07-23T00:41:00;101981.63;;;17.13;73.38
73681;BME280;61979;53.536;8.082;2022-07-23T00:42:01;101985.91;;;17.14;73.25
73681;BME280;61979;53.536;8.082;2022-07-23T00:43:02;101985.09;;;17.11;73.59
73681;BME280;61979;53.536;8.082;2022-07-23T00:44:22;101984.22;;;17.12;74.59
73681;BME280;61979;53.536;8.082;2022-07-23T00:45:23;101979.34;;;17.00;73.41
73681;BME280;61979;53.536;8.082;2022-07-23T00:46:23;101980.34;;;16.91;73.72
73681;BME280;61979;53.536;8.082;2022-07-23T00:47:25;101975.13;;;16.94;73.31
73681;BME280;61979;53.536;8.082;2022-07-23T00:48:26;101986.31;;;16.95;73.27
73681;BME280;61979;53.536;8.082;2022-07-23T00:49:29;101984.53;;;16.97;73.41
73681;BME280;61979;53.536;8.082;2022-07-23T00:50:29;101988.06;;;16.93;73.92
73681;BME280;61979;53.536;8.082;2022-07-23T00:51:30;101985.50;;;16.93;73.56
73681;BME280;61979;53.536;8.082;2022-07-23T00:52:31;101985.34;;;16.99;73.07
73681;BME280;61979;53.536;8.082;2022-07-23T00:53:31;101986.91;;;17.06;73.82
73681;BME280;61979;53.536;8.082;2022-07-23T00:54:32;101979.38;;;16.97;74.05
73681;BME280;61979;53.536;8.082;2022-07-23T00:55:32;101981.81;;;17.04;73.04
73681;BME280;61979;53.536;8.082;2022-07-23T00:56:34;101982.72;;;17.02;73.74
73681;BME280;61979;53.536;8.082;2022-07-23T00:57:35;101981.03;;;17.01;72.83
73681;BME280;61979;53.536;8.082;2022-07-23T00:58:36;101979.34;;;17.00;73.55
73681;BME280;61979;53.536;8.082;2022-07-23T00:59:39;101978.50;;;16.98;72.84
73681;BME280;61979;53.536;8.082;2022-07-23T01:00:39;101979.47;;;16.94;74.62
73681;BME280;61979;53.536;8.082;2022-07-23T01:01:40;101986.22;;;16.98;73.92
73681;BME280;61979;53.536;8.082;2022-07-23T01:02:42;101976.09;;;16.89;73.61
73681;BME280;61979;53.536;8.082;2022-07-23T01:03:43;101981.06;;;16.98;73.34
73681;BME280;61979;53.536;8.082;2022-07-23T01:04:45;101981.03;;;17.01;74.44
73681;BME280;61979;53.536;8.082;2022-07-23T01:05:46;101981.88;;;17.01;74.26
73681;BME280;61979;53.536;8.082;2022-07-23T01:06:46;101979.25;;;17.03;73.29
73681;BME280;61979;53.536;8.082;2022-07-23T01:07:51;101980.97;;;17.04;74.35
73681;BME280;61979;53.536;8.082;2022-07-23T01:08:53;101973.31;;;16.99;73.94
73681;BME280;61979;53.536;8.082;2022-07-23T01:09:55;101973.34;;;16.98;73.69
73681;BME280;61979;53.536;8.082;2022-07-23T01:10:55;101978.56;;;16.96;74.03
73681;BME280;61979;53.536;8.082;2022-07-23T01:11:56;101972.72;;;16.87;73.41
73681;BME280;61979;53.536;8.082;2022-07-23T01:14:10;101972.53;;;16.96;73.40
73681;BME280;61979;53.536;8.082;2022-07-23T01:15:11;101977.63;;;16.99;72.83
73681;BME280;61979;53.536;8.082;2022-07-23T01:16:11;101973.41;;;16.96;74.81
73681;BME280;61979;53.536;8.082;2022-07-23T01:17:12;101981.88;;;17.01;74.36
73681;BME280;61979;53.536;8.082;2022-07-23T01:18:12;101971.63;;;17.00;73.29
73681;BME280;61979;53.536;8.082;2022-07-23T01:19:13;101969.03;;;17.00;73.25
73681;BME280;61979;53.536;8.082;2022-07-23T01:20:14;101970.06;;;16.90;72.66
73681;BME280;61979;53.536;8.082;2022-07-23T01:21:17;101969.88;;;16.99;74.31
73681;BME280;61979;53.536;8.082;2022-07-23T01:22:20;101957.28;;;16.87;74.31
73681;BME280;61979;53.536;8.082;2022-07-23T01:23:21;101965.78;;;16.92;74.02
73681;BME280;61979;53.536;8.082;2022-07-23T01:24:21;101958.72;;;17.00;74.09
73681;BME280;61979;53.536;8.082;2022-07-23T01:25:22;101961.22;;;17.03;73.87
73681;BME280;61979;53.536;8.082;2022-07-23T01:26:23;101958.72;;;17.00;74.00
73681;BME280;61979;53.536;8.082;2022-07-23T01:27:23;101962.13;;;17.02;73.67
73681;BME280;61979;53.536;8.082;2022-07-23T01:28:23;101959.75;;;16.91;74.60
73681;BME280;61979;53.536;8.082;2022-07-23T01:29:24;101958.78;;;16.97;74.49
73681;BME280;61979;53.536;8.082;2022-07-23T01:30:24;101965.50;;;17.04;74.33
73681;BME280;61979;53.536;8.082;2022-07-23T01:31:25;101965.44;;;17.07;75.08
73681;BME280;61979;53.536;8.082;2022-07-23T01:32:26;101960.22;;;17.10;74.68
73681;BME280;61979;53.536;8.082;2022-07-23T01:33:26;101964.84;;;16.94;75.13
73681;BME280;61979;53.536;8.082;2022-07-23T01:34:29;101960.00;;;16.79;75.40
73681;BME280;61979;53.536;8.082;2022-07-23T01:35:30;101955.66;;;16.83;75.36
73681;BME280;61979;53.536;8.082;2022-07-23T01:36:30;101953.88;;;16.85;75.44
73681;BME280;61979;53.536;8.082;2022-07-23T01:37:31;101964.19;;;16.85;74.48
73681;BME280;61979;53.536;8.082;2022-07-23T01:38:31;101958.97;;;16.86;75.16
73681;BME280;61979;53.536;8.082;2022-07-23T01:39:34;101963.94;;;16.97;74.42
73681;BME280;61979;53.536;8.082;2022-07-23T01:40:34;101959.81;;;16.88;74.83
73681;BME280;61979;53.536;8.082;2022-07-23T01:41:34;101964.00;;;16.94;74.75
73681;BME280;61979;53.536;8.082;2022-07-23T01:42:35;101955.31;;;16.98;75.13
73681;BME280;61979;53.536;8.082;2022-07-23T01:43:36;101960.47;;;16.98;74.28
73681;BME280;61979;53.536;8.082;2022-07-23T01:44:36;101953.69;;;16.94;74.46
73681;BME280;61979;53.536;8.082;2022-07-23T01:45:37;101957.25;;;16.88;74.36
73681;BME280;61979;53.536;8.082;2022-07-23T01:46:38;101952.00;;;16.93;74.80
73681;BME280;61979;53.536;8.082;2022-07-23T01:47:38;101951.41;;;16.80;75.15
73681;BME280;61979;53.536;8.082;2022-07-23T01:48:39;101955.59;;;16.86;74.60
73681;BME280;61979;53.536;8.082;2022-07-23T01:49:39;101952.84;;;16.93;73.89
73681;BME280;61979;53.536;8.082;2022-07-23T01:50:40;101953.94;;;16.82;75.23
73681;BME280;61979;53.536;8.082;2022-07-23T01:51:40;101950.66;;;16.74;75.70
73681;BME280;61979;53.536;8.082;2022-07-23T01:52:59;101947.84;;;16.86;75.08
73681;BME280;61979;53.536;8.082;2022-07-23T01:54:00;101942.09;;;16.75;75.87
73681;BME280;61979;53.536;8.082;2022-07-23T01:55:00;101946.47;;;16.70;75.65
73681;BME280;61979;53.536;8.082;2022-07-23T01:56:01;101951.34;;;16.82;75.68
73681;BME280;61979;53.536;8.082;2022-07-23T01:57:01;101946.19;;;16.82;74.09
73681;BME280;61979;53.536;8.082;2022-07-23T01:58:02;101948.75;;;16.85;75.01
73681;BME280;61979;53.536;8.082;2022-07-23T01:59:02;101936.94;;;16.75;75.85
73681;BME280;61979;53.536;8.082;2022-07-23T02:00:03;101934.47;;;16.69;75.89
73681;BME280;61979;53.536;8.082;2022-07-23T02:01:04;101936.00;;;16.77;74.85
73681;BME280;61979;53.536;8.082;2022-07-23T02:02:04;101931.81;;;16.72;75.21
73681;BME280;61979;53.536;8.082;2022-07-23T02:03:05;101935.22;;;16.74;74.84
73681;BME280;61979;53.536;8.082;2022-07-23T02:04:06;101932.72;;;16.69;75.74
73681;BME280;61979;53.536;8.082;2022-07-23T02:05:06;101932.81;;;16.66;75.97
73681;BME280;61979;53.536;8.082;2022-07-23T02:06:07;101937.03;;;16.69;75.04
73681;BME280;61979;53.536;8.082;2022-07-23T02:07:07;101926.16;;;16.55;75.83
73681;BME280;61979;53.536;8.082;2022-07-23T02:08:07;101930.31;;;16.62;75.41
73681;BME280;61979;53.536;8.082;2022-07-23T02:09:08;101930.25;;;16.65;75.66
73681;BME280;61979;53.536;8.082;2022-07-23T02:10:08;101935.31;;;16.69;74.63
73681;BME280;61979;53.536;8.082;2022-07-23T02:11:09;101938.81;;;16.67;75.29
73681;BME280;61979;53.536;8.082;2022-07-23T02:12:09;101935.22;;;16.74;75.20
73681;BME280;61979;53.536;8.082;2022-07-23T02:13:10;101938.06;;;16.60;75.40
73681;BME280;61979;53.536;8.082;2022-07-23T02:14:10;101937.25;;;16.58;75.71
73681;BME280;61979;53.536;8.082;2022-07-23T02:15:10;101932.06;;;16.61;76.39
73681;BME280;61979;53.536;8.082;2022-07-23T02:16:11;101933.66;;;16.67;75.40
73681;BME280;61979;53.536;8.082;2022-07-23T02:17:11;101933.06;;;16.54;75.39
73681;BME280;61979;53.536;8.082;2022-07-23T02:18:11;101934.69;;;16.57;75.75
73681;BME280;61979;53.536;8.082;2022-07-23T02:19:12;101935.34;;;16.68;74.66
73681;BME280;61979;53.536;8.082;2022-07-23T02:20:12;101933.00;;;16.56;75.83
73681;BME280;61979;53.536;8.082;2022-07-23T02:21:12;101929.09;;;16.37;75.73
73681;BME280;61979;53.536;8.082;2022-07-23T02:22:13;101931.59;;;16.40;76.07
73681;BME280;61979;53.536;8.082;2022-07-23T02:23:13;101930.75;;;16.41;75.33
73681;BME280;61979;53.536;8.082;2022-07-23T02:24:14;101929.09;;;16.37;76.21
73681;BME280;61979;53.536;8.082;2022-07-23T02:25:15;101927.38;;;16.38;75.41
73681;BME280;61979;53.536;8.082;2022-07-23T02:26:15;101929.09;;;16.37;75.77
73681;BME280;61979;53.536;8.082;2022-07-23T02:27:15;101926.50;;;16.35;75.74
73681;BME280;61979;53.536;8.082;2022-07-23T02:28:19;101924.81;;;16.34;75.69
73681;BME280;61979;53.536;8.082;2022-07-23T02:29:19;101923.94;;;16.37;75.69
73681;BME280;61979;53.536;8.082;2022-07-23T02:30:19;101932.69;;;16.27;76.50
73681;BME280;61979;53.536;8.082;2022-07-23T02:31:20;101924.06;;;16.29;76.33
73681;BME280;61979;53.536;8.082;2022-07-23T02:32:20;101930.19;;;16.24;76.51
73681;BME280;61979;53.536;8.082;2022-07-23T02:33:24;101930.19;;;16.24;76.79
73681;BME280;61979;53.536;8.082;2022-07-23T02:34:24;101925.06;;;16.21;76.96
73681;BME280;61979;53.536;8.082;2022-07-23T02:35:24;101932.63;;;16.30;76.07
73681;BME280;61979;53.536;8.082;2022-07-23T02:36:25;101928.66;;;16.13;76.95
73681;BME280;61979;53.536;8.082;2022-07-23T02:37:25;101933.00;;;16.11;76.71
73681;BME280;61979;53.536;8.082;2022-07-23T02:38:26;101931.00;;;16.24;76.49
73681;BME280;61979;53.536;8.082;2022-07-23T02:39:26;101932.50;;;16.36;75.86
73681;BME280;61979;53.536;8.082;2022-07-23T02:40:27;101923.84;;;16.43;76.22
73681;BME280;61979;53.536;8.082;2022-07-23T02:41:27;101923.72;;;16.49;76.82
73681;BME280;61979;53.536;8.082;2022-07-23T02:42:28;101924.47;;;16.54;76.64
73681;BME280;61979;53.536;8.082;2022-07-23T02:43:28;101926.94;;;16.60;76.32
73681;BME280;61979;53.536;8.082;2022-07-23T02:44:29;101921.09;;;16.50;77.10
73681;BME280;61979;53.536;8.082;2022-07-23T02:45:29;101922.59;;;16.62;76.00
73681;BME280;61979;53.536;8.082;2022-07-23T02:46:30;101921.53;;;16.72;75.91
73681;BME280;61979;53.536;8.082;2022-07-23T02:47:30;101925.88;;;16.70;76.18
73681;BME280;61979;53.536;8.082;2022-07-23T02:48:32;101921.81;;;16.57;75.93
73681;BME280;61979;53.536;8.082;2022-07-23T02:49:35;101921.78;;;16.60;75.95
73681;BME280;61979;53.536;8.082;2022-07-23T02:50:36;101924.38;;;16.58;76.72
73681;BME280;61979;53.536;8.082;2022-07-23T02:51:36;101926.97;;;16.57;75.83
73681;BME280;61979;53.536;8.082;2022-07-23T02:52:37;101932.13;;;16.57;76.95
73681;BME280;61979;53.536;8.082;2022-07-23T02:53:37;101926.06;;;16.59;76.84
73681;BME280;61979;53.536;8.082;2022-07-23T02:54:37;101930.44;;;16.56;76.91
73681;BME280;61979;53.536;8.082;2022-07-23T02:55:38;101922.88;;;16.47;77.27
73681;BME280;61979;53.536;8.082;2022-07-23T02:56:38;101928.97;;;16.43;76.18
73681;BME280;61979;53.536;8.082;2022-07-23T02:57:39;101919.47;;;16.46;76.40
73681;BME280;61979;53.536;8.082;2022-07-23T02:58:39;101928.91;;;16.47;77.55
73681;BME280;61979;53.536;8.082;2022-07-23T02:59:39;101931.41;;;16.50;77.08
73681;BME280;61979;53.536;8.082;2022-07-23T03:00:40;101934.84;;;16.49;76.60
73681;BME280;61979;53.536;8.082;2022-07-23T03:01:40;101935.88;;;16.41;76.80
73681;BME280;61979;53.536;8.082;2022-07-23T03:02:40;101934.16;;;16.40;77.07
73681;BME280;61979;53.536;8.082;2022-07-23T03:03:41;101937.59;;;16.42;76.90
73681;BME280;61979;53.536;8.082;2022-07-23T03:04:41;101931.69;;;16.34;76.37
73681;BME280;61979;53.536;8.082;2022-07-23T03:05:42;101939.31;;;16.40;76.35
73681;BME280;61979;53.536;8.082;2022-07-23T03:06:42;101933.41;;;16.33;76.31
73681;BME280;61979;53.536;8.082;2022-07-23T03:07:43;101932.91;;;16.15;77.26
73681;BME280;61979;53.536;8.082;2022-07-23T03:08:43;101926.13;;;16.10;78.06
73681;BME280;61979;53.536;8.082;2022-07-23T03:09:44;101927.63;;;16.23;77.92
73681;BME280;61979;53.536;8.082;2022-07-23T03:10:44;101920.72;;;16.23;77.83
73681;BME280;61979;53.536;8.082;2022-07-23T03:11:44;101918.03;;;16.32;77.44
73681;BME280;61979;53.536;8.082;2022-07-23T03:12:45;101921.41;;;16.32;77.26
73681;BME280;61979;53.536;8.082;2022-07-23T03:13:45;101921.69;;;16.17;77.72
73681;BME280;61979;53.536;8.082;2022-07-23T03:14:45;101924.31;;;16.16;78.34
73681;BME280;61979;53.536;8.082;2022-07-23T03:15:46;101927.53;;;16.27;77.83
73681;BME280;61979;53.536;8.082;2022-07-23T03:16:46;101930.91;;;16.29;77.99
73681;BME280;61979;53.536;8.082;2022-07-23T03:17:47;101929.09;;;16.37;77.96
73681;BME280;61979;53.536;8.082;2022-07-23T03:18:47;101923.97;;;16.34;77.60
73681;BME280;61979;53.536;8.082;2022-07-23T03:19:47;101922.94;;;16.44;77.58
73681;BME280;61979;53.536;8.082;2022-07-23T03:20:48;101923.66;;;16.52;78.15
73681;BME280;61979;53.536;8.082;2022-07-23T03:21:48;101922.16;;;16.42;78.51
73681;BME280;61979;53.536;8.082;2022-07-23T03:22:48;101912.56;;;16.48;77.64
73681;BME280;61979;53.536;8.082;2022-07-23T03:23:49;101918.41;;;16.58;77.31
73681;BME280;61979;53.536;8.082;2022-07-23T03:24:49;101910.53;;;16.64;77.60
73681;BME280;61979;53.536;8.082;2022-07-23T03:25:55;101909.66;;;16.65;76.62
73681;BME280;61979;53.536;8.082;2022-07-23T03:26:56;101907.03;;;16.68;76.26
73681;BME280;61979;53.536;8.082;2022-07-23T03:27:56;101907.03;;;16.68;76.87
73681;BME280;61979;53.536;8.082;2022-07-23T03:28:57;101905.19;;;16.73;76.15
73681;BME280;61979;53.536;8.082;2022-07-23T03:29:58;101906.03;;;16.75;76.87
73681;BME280;61979;53.536;8.082;2022-07-23T03:30:59;101911.03;;;16.81;76.68
73681;BME280;61979;53.536;8.082;2022-07-23T03:31:59;101921.41;;;16.78;75.92
73681;BME280;61979;53.536;8.082;2022-07-23T03:32:59;101918.06;;;16.73;76.93
73681;BME280;61979;53.536;8.082;2022-07-23T03:34:00;101921.72;;;16.63;76.57
73681;BME280;61979;53.536;8.082;2022-07-23T03:35:00;101921.72;;;16.63;76.79
73681;BME280;61979;53.536;8.082;2022-07-23T03:36:01;101916.53;;;16.64;76.40
73681;BME280;61979;53.536;8.082;2022-07-23T03:37:01;101925.16;;;16.62;76.23
73681;BME280;61979;53.536;8.082;2022-07-23T03:38:02;101924.41;;;16.57;76.83
73681;BME280;61979;53.536;8.082;2022-07-23T03:39:02;101922.66;;;16.59;77.37
73681;BME280;61979;53.536;8.082;2022-07-23T03:40:04;101918.25;;;16.64;76.81
73681;BME280;61979;53.536;8.082;2022-07-23T03:41:05;101921.66;;;16.66;76.47
73681;BME280;61979;53.536;8.082;2022-07-23T03:42:06;101913.94;;;16.66;76.63
73681;BME280;61979;53.536;8.082;2022-07-23T03:43:06;101913.91;;;16.67;76.83
73681;BME280;61979;53.536;8.082;2022-07-23T03:44:06;101914.94;;;16.59;75.84
73681;BME280;61979;53.536;8.082;2022-07-23T03:45:07;101911.47;;;16.60;76.83
73681;BME280;61979;53.536;8.082;2022-07-23T03:46:08;101910.69;;;16.58;77.07
73681;BME280;61979;53.536;8.082;2022-07-23T03:47:09;101911.59;;;16.54;77.23
73681;BME280;61979;53.536;8.082;2022-07-23T03:48:10;101911.59;;;16.54;77.57
73681;BME280;61979;53.536;8.082;2022-07-23T03:49:10;101913.28;;;16.55;77.87
73681;BME280;61979;53.536;8.082;2022-07-23T03:50:10;101917.50;;;16.59;77.90
73681;BME280;61979;53.536;8.082;2022-07-23T03:51:11;101916.63;;;16.60;77.10
73681;BME280;61979;53.536;8.082;2022-07-23T03:52:11;101920.09;;;16.59;76.99
73681;BME280;61979;53.536;8.082;2022-07-23T03:53:12;101914.88;;;16.62;76.50
73681;BME280;61979;53.536;8.082;2022-07-23T03:54:12;101911.59;;;16.54;77.73
73681;BME280;61979;53.536;8.082;2022-07-23T03:55:13;101913.19;;;16.61;77.51
73681;BME280;61979;53.536;8.082;2022-07-23T03:56:13;101914.03;;;16.61;77.10
73681;BME280;61979;53.536;8.082;2022-07-23T03:57:14;101909.66;;;16.65;76.93
73681;BME280;61979;53.536;8.082;2022-07-23T03:58:14;101913.09;;;16.64;76.93
73681;BME280;61979;53.536;8.082;2022-07-23T03:59:14;101908.78;;;16.66;77.80
73681;BME280;61979;53.536;8.082;2022-07-23T04:00:15;101912.28;;;16.63;76.13
73681;BME280;61979;53.536;8.082;2022-07-23T04:01:15;101911.41;;;16.63;76.97
73681;BME280;61979;53.536;8.082;2022-07-23T04:02:16;101916.69;;;16.57;76.55
73681;BME280;61979;53.536;8.082;2022-07-23T04:03:16;101912.56;;;16.48;76.95
73681;BME280;61979;53.536;8.082;2022-07-23T04:04:16;101921.16;;;16.47;77.50
73681;BME280;61979;53.536;8.082;2022-07-23T04:05:17;101922.19;;;16.39;77.98
73681;BME280;61979;53.536;8.082;2022-07-23T04:06:18;101923.75;;;16.46;77.72
73681;BME280;61979;53.536;8.082;2022-07-23T04:07:18;101928.97;;;16.43;77.93
73681;BME280;61979;53.536;8.082;2022-07-23T04:08:18;101926.31;;;16.49;78.08
73681;BME280;61979;53.536;8.082;2022-07-23T04:09:19;101927.28;;;16.42;77.69
73681;BME280;61979;53.536;8.082;2022-07-23T04:10:20;101933.25;;;16.42;77.35
73681;BME280;61979;53.536;8.082;2022-07-23T04:11:20;101924.63;;;16.46;78.48
73681;BME280;61979;53.536;8.082;2022-07-23T04:12:21;101930.69;;;16.44;77.50
73681;BME280;61979;53.536;8.082;2022-07-23T04:13:21;101926.22;;;16.52;77.92
73681;BME280;61979;53.536;8.082;2022-07-23T04:14:22;101927.91;;;16.54;78.21
73681;BME280;61979;53.536;8.082;2022-07-23T04:15:22;101928.81;;;16.52;76.86
73681;BME280;61979;53.536;8.082;2022-07-23T04:16:22;101928.81;;;16.52;77.83
73681;BME280;61979;53.536;8.082;2022-07-23T04:17:23;101929.59;;;16.55;77.92
73681;BME280;61979;53.536;8.082;2022-07-23T04:18:23;101928.69;;;16.58;77.29
73681;BME280;61979;53.536;8.082;2022-07-23T04:19:24;101919.22;;;16.60;75.70
73681;BME280;61979;53.536;8.082;2022-07-23T04:20:24;101920.19;;;16.53;77.14
73681;BME280;61979;53.536;8.082;2022-07-23T04:21:25;101918.66;;;16.44;78.03
73681;BME280;61979;53.536;8.082;2022-07-23T04:22:25;101915.47;;;16.29;77.99
73681;BME280;61979;53.536;8.082;2022-07-23T04:23:26;101922.56;;;16.18;77.72
73681;BME280;61979;53.536;8.082;2022-07-23T04:24:26;101913.84;;;16.25;77.11
73681;BME280;61979;53.536;8.082;2022-07-23T04:25:26;101925.84;;;16.26;77.10
73681;BME280;61979;53.536;8.082;2022-07-23T04:26:27;101920.91;;;16.14;77.48
73681;BME280;61979;53.536;8.082;2022-07-23T04:27:27;101913.41;;;16.04;78.30
73681;BME280;61979;53.536;8.082;2022-07-23T04:28:27;101909.16;;;16.01;77.53
73681;BME280;61979;53.536;8.082;2022-07-23T04:29:28;101915.03;;;16.06;77.34
73681;BME280;61979;53.536;8.082;2022-07-23T04:30:28;101919.91;;;16.21;76.69
73681;BME280;61979;53.536;8.082;2022-07-23T04:31:29;101915.47;;;16.30;77.37
73681;BME280;61979;53.536;8.082;2022-07-23T04:32:29;101911.06;;;16.35;77.31
73681;BME280;61979;53.536;8.082;2022-07-23T04:33:30;101910.97;;;16.43;76.83
73681;BME280;61979;53.536;8.082;2022-07-23T04:34:32;101918.50;;;16.52;76.73
73681;BME280;61979;53.536;8.082;2022-07-23T04:35:36;101916.75;;;16.54;76.69
73681;BME280;61979;53.536;8.082;2022-07-23T04:36:37;101920.91;;;16.59;75.54
73681;BME280;61979;53.536;8.082;2022-07-23T04:37:37;101914.00;;;16.63;75.05
73681;BME280;61979;53.536;8.082;2022-07-23T04:38:37;101916.53;;;16.66;74.81
73681;BME280;61979;53.536;8.082;2022-07-23T04:39:38;101909.59;;;16.68;74.37
73681;BME280;61979;53.536;8.082;2022-07-23T04:40:38;101919.13;;;16.63;74.83
73681;BME280;61979;53.536;8.082;2022-07-23T04:41:38;101913.06;;;16.67;75.20
73681;BME280;61979;53.536;8.082;2022-07-23T04:42:39;101916.38;;;16.72;74.78
73681;BME280;61979;53.536;8.082;2022-07-23T04:43:39;101909.41;;;16.77;74.60
73681;BME280;61979;53.536;8.082;2022-07-23T04:44:40;101912.00;;;16.77;74.54
73681;BME280;61979;53.536;8.082;2022-07-23T04:45:40;101915.31;;;16.82;74.67
73681;BME280;61979;53.536;8.082;2022-07-23T04:46:41;101912.69;;;16.85;73.66
73681;BME280;61979;53.536;8.082;2022-07-23T04:47:41;101916.97;;;16.84;73.70
73681;BME280;61979;53.536;8.082;2022-07-23T04:48:41;101916.09;;;16.85;72.93
73681;BME280;61979;53.536;8.082;2022-07-23T04:49:42;101912.72;;;16.82;72.82
73681;BME280;61979;53.536;8.082;2022-07-23T04:50:42;101911.81;;;16.86;73.17
73681;BME280;61979;53.536;8.082;2022-07-23T04:51:43;101915.19;;;16.86;73.08
73681;BME280;61979;53.536;8.082;2022-07-23T04:52:43;101914.44;;;16.83;73.66
73681;BME280;61979;53.536;8.082;2022-07-23T04:53:43;101919.63;;;16.80;72.75
73681;BME280;61979;53.536;8.082;2022-07-23T04:54:44;101920.41;;;16.85;73.78
73681;BME280;61979;53.536;8.082;2022-07-23T04:55:44;101916.88;;;16.89;73.82
73681;BME280;61979;53.536;8.082;2022-07-23T04:56:44;101922.84;;;16.91;73.90
73681;BME280;61979;53.536;8.082;2022-07-23T04:57:45;101914.97;;;16.97;73.14
73681;BME280;61979;53.536;8.082;2022-07-23T04:58:45;101926.84;;;17.05;73.14
73681;BME280;61979;53.536;8.082;2022-07-23T04:59:45;101930.94;;;17.14;72.67
73681;BME280;61979;53.536;8.082;2022-07-23T05:00:46;101918.84;;;17.16;72.68
73681;BME280;61979;53.536;8.082;2022-07-23T05:01:47;101927.41;;;17.18;73.04
73681;BME280;61979;53.536;8.082;2022-07-23T05:02:47;101919.72;;;17.16;72.72
73681;BME280;61979;53.536;8.082;2022-07-23T05:03:48;101925.78;;;17.12;73.05
73681;BME280;61979;53.536;8.082;2022-07-23T05:04:48;101924.75;;;17.22;72.22
73681;BME280;61979;53.536;8.082;2022-07-23T05:05:49;101923.66;;;17.31;72.64
73681;BME280;61979;53.536;8.082;2022-07-23T05:06:49;101930.50;;;17.33;73.12
73681;BME280;61979;53.536;8.082;2022-07-23T05:07:49;101930.59;;;17.29;73.20
73681;BME280;61979;53.536;8.082;2022-07-23T05:08:50;101932.28;;;17.30;73.13
73681;BME280;61979;53.536;8.082;2022-07-23T05:09:50;101931.59;;;17.23;72.85
73681;BME280;61979;53.536;8.082;2022-07-23T05:10:51;101926.34;;;17.26;72.68
73681;BME280;61979;53.536;8.082;2022-07-23T05:11:51;101934.75;;;16.96;73.17
73681;BME280;61979;53.536;8.082;2022-07-23T05:12:51;101938.97;;;16.99;72.74
73681;BME280;61979;53.536;8.082;2022-07-23T05:13:52;101930.81;;;16.80;74.28
73681;BME280;61979;53.536;8.082;2022-07-23T05:14:52;101932.44;;;16.84;74.08
73681;BME280;61979;53.536;8.082;2022-07-23T05:15:53;101925.28;;;16.97;73.57
73681;BME280;61979;53.536;8.082;2022-07-23T05:16:53;101937.19;;;17.02;74.40
73681;BME280;61979;53.536;8.082;2022-07-23T05:17:54;101927.16;;;16.90;74.18
73681;BME280;61979;53.536;8.082;2022-07-23T05:18:54;101933.91;;;16.94;74.23